Time;durP1;ratioP1;P1;durP2;ratioP2;P2;SDS_P1;SDS_P2;PMS_P1;PMS_P2;Temp;Humidity;BMP_temperature;BMP_pressure;BME280_temperature;BME280_humidity;BME280_pressure;Samples;Min_cycle;Max_cycle;Signal;HPM_P1;HPM_P2
2022/02/16 00:02:22;;;;;;;2.43;2.33;;;9.30;99.90;;;;;;5052137;28;20470;-67
2022/02/16 00:04:48;;;;;;;2.80;2.60;;;9.20;99.90;;;;;;5067837;28;20189;-67
2022/02/16 00:07:14;;;;;;;2.60;2.50;;;9.30;99.90;;;;;;5051013;28;20192;-67
2022/02/16 00:09:39;;;;;;;2.50;2.40;;;9.20;99.90;;;;;;5052143;28;20178;-67
2022/02/16 00:12:07;;;;;;;2.30;2.20;;;9.10;99.90;;;;;;5051298;28;20205;-67
2022/02/16 00:14:33;;;;;;;2.30;2.20;;;9.10;99.90;;;;;;5052069;28;20200;-67
2022/02/16 00:16:59;;;;;;;2.37;2.17;;;9.20;99.90;;;;;;5051279;28;20426;-67
2022/02/16 00:19:25;;;;;;;2.47;2.27;;;9.20;99.90;;;;;;5052014;28;20458;-67
2022/02/16 00:21:51;;;;;;;2.70;2.60;;;9.30;99.90;;;;;;5051863;28;20501;-75
2022/02/16 00:24:17;;;;;;;2.20;2.20;;;9.30;99.90;;;;;;5051734;28;20433;-68
2022/02/16 00:26:43;;;;;;;2.50;2.40;;;9.40;99.90;;;;;;5052149;28;20437;-68
2022/02/16 00:29:11;;;;;;;2.70;2.60;;;9.30;99.90;;;;;;5050194;28;20398;-67
2022/02/16 00:31:37;;;;;;;3.20;3.00;;;9.30;99.90;;;;;;5052216;28;20182;-67
2022/02/16 00:34:03;;;;;;;2.90;2.80;;;9.40;99.90;;;;;;5013206;28;20935;-68
2022/02/16 00:36:29;;;;;;;2.97;2.60;;;9.30;99.90;;;;;;5032153;28;20412;-67
2022/02/16 00:38:55;;;;;;;2.63;2.43;;;9.40;99.90;;;;;;5031530;28;20768;-75
2022/02/16 00:41:21;;;;;;;2.87;2.67;;;9.40;99.90;;;;;;5032041;28;20213;-67
2022/02/16 00:43:46;;;;;;;2.90;2.80;;;9.30;99.90;;;;;;5032925;28;20551;-67
2022/02/16 00:46:12;;;;;;;2.63;2.53;;;9.20;99.90;;;;;;5051138;28;21080;-68
2022/02/16 00:48:38;;;;;;;3.00;2.90;;;9.30;99.90;;;;;;5050704;28;20686;-67
2022/02/16 00:51:04;;;;;;;2.67;2.57;;;9.20;99.90;;;;;;5051314;28;20257;-67
2022/02/16 00:53:29;;;;;;;3.03;2.87;;;9.20;99.90;;;;;;5050891;28;20212;-68
2022/02/16 00:55:55;;;;;;;3.00;2.90;;;9.20;99.90;;;;;;5051086;28;20424;-77
2022/02/16 00:58:21;;;;;;;3.07;2.97;;;9.20;99.90;;;;;;5051482;28;20277;-67
2022/02/16 01:00:48;;;;;;;3.07;2.43;;;9.20;99.90;;;;;;5051625;28;20198;-68
2022/02/16 01:03:14;;;;;;;2.70;2.60;;;9.30;99.90;;;;;;5049553;28;20189;-67
2022/02/16 01:05:39;;;;;;;2.70;2.60;;;9.40;99.90;;;;;;5051830;28;20416;-67
2022/02/16 01:08:09;;;;;;;2.87;2.77;;;9.40;99.90;;;;;;5051061;28;20581;-68
2022/02/16 01:10:35;;;;;;;2.80;2.60;;;9.50;99.90;;;;;;5050237;28;20175;-67
2022/02/16 01:13:01;;;;;;;2.97;2.87;;;9.50;99.90;;;;;;5050690;28;20928;-67
2022/02/16 01:15:27;;;;;;;3.00;2.90;;;9.50;99.90;;;;;;5051497;28;20452;-67
2022/02/16 01:17:53;;;;;;;2.80;2.70;;;9.50;99.90;;;;;;5051503;28;20201;-67
2022/02/16 01:20:20;;;;;;;2.60;2.50;;;9.50;99.90;;;;;;5049504;28;20344;-67
2022/02/16 01:22:46;;;;;;;2.40;2.30;;;9.50;99.90;;;;;;5051412;28;20445;-67
2022/02/16 01:25:12;;;;;;;3.20;3.00;;;9.50;99.90;;;;;;5050800;28;20818;-68
2022/02/16 01:27:37;;;;;;;2.40;2.30;;;9.70;99.90;;;;;;5051755;28;20258;-68
2022/02/16 01:30:05;;;;;;;2.63;2.53;;;9.70;99.90;;;;;;5050639;28;20509;-68
2022/02/16 01:32:30;;;;;;;2.50;2.30;;;9.60;99.90;;;;;;5051717;28;20188;-68
2022/02/16 01:34:56;;;;;;;2.80;2.70;;;9.70;99.90;;;;;;5051532;28;20773;-75
2022/02/16 01:37:22;;;;;;;2.70;2.60;;;9.70;99.90;;;;;;5051523;28;20178;-68
2022/02/16 01:39:47;;;;;;;3.17;2.83;;;9.70;99.90;;;;;;5051008;28;20184;-67
2022/02/16 01:42:18;;;;;;;2.40;2.30;;;9.70;99.90;;;;;;5050672;28;20293;-67
2022/02/16 01:44:44;;;;;;;2.10;2.00;;;9.60;99.90;;;;;;5052670;28;20228;-68
2022/02/16 01:47:10;;;;;;;2.20;2.10;;;9.70;99.90;;;;;;5054478;28;20409;-67
2022/02/16 01:49:37;;;;;;;2.37;2.27;;;9.60;99.90;;;;;;5054562;28;20824;-68
2022/02/16 01:52:04;;;;;;;2.20;2.20;;;9.60;99.90;;;;;;5054036;28;20226;-67
2022/02/16 01:54:30;;;;;;;1.90;1.90;;;9.60;99.90;;;;;;5054604;28;20827;-67
2022/02/16 01:56:57;;;;;;;2.00;2.00;;;9.70;99.90;;;;;;5054401;28;20429;-76
2022/02/16 01:59:24;;;;;;;1.80;1.70;;;9.50;99.90;;;;;;5054656;28;20188;-67
2022/02/16 02:01:51;;;;;;;2.27;2.17;;;9.50;99.90;;;;;;5054663;28;20490;-67
2022/02/16 02:04:18;;;;;;;2.00;2.00;;;9.50;99.90;;;;;;5052451;28;20945;-67
2022/02/16 02:06:45;;;;;;;2.37;2.27;;;9.50;99.90;;;;;;5054381;28;20453;-68
2022/02/16 02:09:12;;;;;;;2.37;2.27;;;9.40;99.90;;;;;;5053204;28;20421;-68
2022/02/16 02:11:38;;;;;;;1.90;1.90;;;9.50;99.90;;;;;;5054515;28;20412;-67
2022/02/16 02:14:07;;;;;;;2.30;2.30;;;9.50;99.90;;;;;;5053732;28;20419;-68
2022/02/16 02:16:33;;;;;;;2.30;2.20;;;9.60;99.90;;;;;;5054814;28;20414;-68
2022/02/16 02:18:59;;;;;;;2.50;2.40;;;9.70;99.90;;;;;;5053388;28;20412;-77
2022/02/16 02:21:26;;;;;;;2.60;2.50;;;9.60;99.90;;;;;;5054257;28;20949;-68
2022/02/16 02:23:53;;;;;;;2.47;2.37;;;9.50;99.90;;;;;;5054456;28;20420;-67
2022/02/16 02:26:18;;;;;;;2.70;2.60;;;9.50;99.90;;;;;;5053702;28;20431;-68
2022/02/16 02:28:46;;;;;;;2.60;2.50;;;9.60;99.90;;;;;;5054258;28;20414;-68
2022/02/16 02:31:12;;;;;;;2.40;2.30;;;9.60;99.90;;;;;;5053226;28;20226;-68
2022/02/16 02:33:38;;;;;;;2.60;2.50;;;9.70;99.90;;;;;;5053894;28;20428;-67
2022/02/16 02:36:08;;;;;;;2.53;2.50;;;9.70;99.90;;;;;;5053250;28;20787;-68
2022/02/16 02:38:34;;;;;;;2.60;2.50;;;9.60;99.90;;;;;;5052916;28;20208;-67
2022/02/16 02:41:02;;;;;;;2.40;2.37;;;9.50;99.90;;;;;;5052376;28;20859;-76
2022/02/16 02:43:29;;;;;;;2.73;2.63;;;9.70;99.90;;;;;;5053692;28;20443;-67
2022/02/16 02:45:56;;;;;;;2.67;2.57;;;9.60;99.90;;;;;;5053896;28;20436;-68
2022/02/16 02:48:23;;;;;;;2.90;2.80;;;9.60;99.90;;;;;;5053067;28;20469;-67
2022/02/16 02:50:54;;;;;;;2.33;2.23;;;9.70;99.90;;;;;;5054012;28;20481;-67
2022/02/16 02:53:20;;;;;;;2.50;2.40;;;9.70;99.90;;;;;;5052679;28;20424;-67
2022/02/16 02:55:46;;;;;;;2.43;2.33;;;9.60;99.90;;;;;;5053192;28;20904;-67
2022/02/16 02:58:12;;;;;;;2.47;2.37;;;9.60;99.90;;;;;;5052879;28;20408;-67
2022/02/16 03:00:38;;;;;;;2.50;2.40;;;9.60;99.90;;;;;;5052156;28;20463;-67
2022/02/16 03:03:04;;;;;;;2.63;2.53;;;9.60;99.90;;;;;;5052772;28;20179;-76
2022/02/16 03:05:29;;;;;;;2.30;2.23;;;9.60;99.90;;;;;;5052240;28;20232;-67
2022/02/16 03:07:55;;;;;;;2.50;2.40;;;9.60;99.90;;;;;;5051885;28;20186;-67
2022/02/16 03:10:21;;;;;;;2.10;2.07;;;9.60;99.90;;;;;;5052436;28;20406;-68
2022/02/16 03:12:46;;;;;;;2.60;2.50;;;9.60;99.90;;;;;;5052091;28;20641;-67
2022/02/16 03:15:13;;;;;;;2.40;2.33;;;9.60;99.90;;;;;;5052533;28;20186;-67
2022/02/16 03:17:38;;;;;;;2.50;2.40;;;9.70;99.90;;;;;;5053389;28;20205;-67
2022/02/16 03:20:07;;;;;;;2.50;2.40;;;9.60;99.90;;;;;;5052015;28;20555;-75
2022/02/16 03:22:33;;;;;;;2.50;2.40;;;9.70;99.90;;;;;;5052188;28;20666;-67
2022/02/16 03:25:02;;;;;;;2.60;2.50;;;9.80;99.90;;;;;;5053409;28;20444;-67
2022/02/16 03:27:28;;;;;;;2.20;2.10;;;9.70;99.90;;;;;;5052971;28;20447;-67
2022/02/16 03:29:55;;;;;;;2.70;2.60;;;9.80;99.90;;;;;;5052850;28;20488;-67
2022/02/16 03:32:21;;;;;;;2.70;2.60;;;9.80;99.90;;;;;;5050678;28;20428;-67
2022/02/16 03:34:47;;;;;;;2.70;2.60;;;9.70;99.90;;;;;;5068370;28;20848;-67
2022/02/16 03:37:13;;;;;;;2.90;2.80;;;9.70;99.90;;;;;;5052153;28;20443;-67
2022/02/16 03:39:39;;;;;;;3.20;3.10;;;9.80;99.90;;;;;;5052850;28;20433;-67
2022/02/16 03:42:05;;;;;;;2.63;2.60;;;9.80;99.90;;;;;;5051077;28;20208;-76
2022/02/16 03:44:31;;;;;;;3.00;2.90;;;9.80;99.90;;;;;;5052453;28;20183;-67
2022/02/16 03:46:57;;;;;;;2.73;2.63;;;9.80;99.90;;;;;;5051267;28;20803;-67
2022/02/16 03:49:24;;;;;;;2.90;2.70;;;9.80;99.90;;;;;;5051587;28;20439;-68
2022/02/16 03:51:50;;;;;;;3.07;2.97;;;9.70;99.90;;;;;;5052422;28;20903;-68
2022/02/16 03:54:16;;;;;;;2.97;2.87;;;9.80;99.90;;;;;;5051827;28;20410;-68
2022/02/16 03:56:43;;;;;;;3.73;3.53;;;9.80;99.90;;;;;;5052381;28;20859;-67
2022/02/16 03:59:08;;;;;;;3.10;2.93;;;9.60;99.90;;;;;;5051710;28;20408;-68
2022/02/16 04:01:34;;;;;;;3.30;3.10;;;9.70;99.90;;;;;;5052434;28;20459;-68
2022/02/16 04:04:00;;;;;;;3.20;3.10;;;9.80;99.90;;;;;;5051193;28;20537;-68
2022/02/16 04:06:26;;;;;;;3.07;2.97;;;9.70;99.90;;;;;;5051345;28;20497;-67
2022/02/16 04:08:52;;;;;;;2.77;2.67;;;9.80;99.90;;;;;;5050280;28;20241;-67
2022/02/16 04:11:20;;;;;;;3.00;2.90;;;9.70;99.90;;;;;;5050430;28;20420;-67
2022/02/16 04:13:47;;;;;;;3.10;3.00;;;9.80;99.90;;;;;;5052362;28;20420;-67
2022/02/16 04:16:13;;;;;;;3.10;3.00;;;9.80;99.90;;;;;;5051356;28;20925;-67
2022/02/16 04:18:39;;;;;;;3.10;3.00;;;9.90;99.90;;;;;;5052306;28;20410;-67
2022/02/16 04:21:05;;;;;;;2.90;2.80;;;9.90;99.90;;;;;;5051191;28;20477;-75
2022/02/16 04:23:31;;;;;;;2.90;2.80;;;9.90;99.90;;;;;;5051506;28;20440;-67
2022/02/16 04:25:57;;;;;;;2.83;2.73;;;9.90;99.90;;;;;;5052217;28;20188;-67
2022/02/16 04:28:23;;;;;;;3.10;3.00;;;9.90;99.90;;;;;;5051177;28;20177;-67
2022/02/16 04:30:49;;;;;;;2.80;2.70;;;9.90;99.90;;;;;;5052152;28;20421;-67
2022/02/16 04:33:15;;;;;;;3.20;3.00;;;9.90;99.90;;;;;;5051116;28;20424;-67
2022/02/16 04:35:41;;;;;;;3.10;3.00;;;10.00;99.90;;;;;;5052438;28;20476;-67
2022/02/16 04:38:08;;;;;;;3.20;3.00;;;10.00;99.90;;;;;;5052413;28;20406;-76
2022/02/16 04:40:34;;;;;;;2.87;2.77;;;10.00;99.90;;;;;;5051763;28;20409;-68
2022/02/16 04:43:03;;;;;;;2.80;2.70;;;10.00;99.90;;;;;;5052166;28;20900;-67
2022/02/16 04:45:30;;;;;;;2.80;2.70;;;10.00;99.90;;;;;;5050682;28;20862;-67
2022/02/16 04:47:57;;;;;;;3.10;3.00;;;9.80;99.90;;;;;;5051704;28;20747;-68
2022/02/16 04:50:23;;;;;;;3.20;3.00;;;9.80;99.90;;;;;;5050665;28;20452;-68
2022/02/16 04:52:54;;;;;;;2.83;2.73;;;9.90;99.90;;;;;;5051917;28;20409;-68
2022/02/16 04:55:20;;;;;;;2.60;2.50;;;9.90;99.90;;;;;;5048525;28;20504;-66
2022/02/16 04:57:46;;;;;;;2.27;2.17;;;9.80;99.90;;;;;;5051620;28;20409;-68
2022/02/16 05:00:12;;;;;;;2.50;2.40;;;9.70;99.90;;;;;;5051707;28;20402;-70
2022/02/16 05:02:38;;;;;;;2.50;2.40;;;9.80;99.90;;;;;;5051921;28;20558;-68
2022/02/16 05:05:06;;;;;;;2.53;2.43;;;9.90;99.90;;;;;;5051765;28;20177;-71
2022/02/16 05:07:32;;;;;;;2.67;2.47;;;9.80;99.90;;;;;;5050961;28;20514;-68
2022/02/16 05:09:58;;;;;;;2.50;2.40;;;9.70;99.90;;;;;;5051678;28;20417;-68
2022/02/16 05:12:24;;;;;;;2.43;2.33;;;9.80;99.90;;;;;;5050790;28;20424;-69
2022/02/16 05:14:50;;;;;;;2.70;2.60;;;9.70;99.90;;;;;;5051615;28;20175;-68
2022/02/16 05:17:15;;;;;;;2.00;2.00;;;9.80;99.90;;;;;;5049844;28;20430;-68
2022/02/16 05:19:41;;;;;;;2.33;2.23;;;9.80;99.90;;;;;;5052854;28;20225;-68
2022/02/16 05:22:08;;;;;;;2.40;2.33;;;9.80;99.90;;;;;;5054045;28;20230;-68
2022/02/16 05:24:33;;;;;;;2.60;2.50;;;9.70;99.90;;;;;;5055253;28;20436;-68
2022/02/16 05:26:59;;;;;;;2.40;1.90;;;9.80;99.90;;;;;;5054615;28;20413;-68
2022/02/16 05:29:25;;;;;;;2.67;2.57;;;9.80;99.90;;;;;;5055415;28;20397;-68
2022/02/16 05:31:51;;;;;;;1.97;1.87;;;9.90;99.90;;;;;;5034979;28;20457;-68
2022/02/16 05:34:17;;;;;;;2.23;2.03;;;9.80;99.90;;;;;;5043673;28;20411;-68
2022/02/16 05:36:43;;;;;;;2.20;2.00;;;9.80;99.90;;;;;;5055277;28;20921;-68
2022/02/16 05:39:09;;;;;;;2.57;2.37;;;9.80;99.90;;;;;;5055667;28;20182;-78
2022/02/16 05:41:35;;;;;;;2.90;2.80;;;9.90;99.90;;;;;;5054297;28;21014;-68
2022/02/16 05:44:01;;;;;;;2.40;2.30;;;9.90;99.90;;;;;;5054549;28;20174;-68
2022/02/16 05:46:27;;;;;;;3.00;2.87;;;9.90;99.90;;;;;;5054768;28;20561;-68
2022/02/16 05:48:53;;;;;;;1.80;1.70;;;9.90;99.90;;;;;;5055458;28;21073;-68
2022/02/16 05:51:18;;;;;;;1.53;1.43;;;9.90;99.90;;;;;;5054902;28;20198;-68
2022/02/16 05:53:45;;;;;;;2.07;1.97;;;10.00;99.90;;;;;;5054163;28;20414;-68
2022/02/16 05:56:10;;;;;;;1.70;1.70;;;10.00;99.90;;;;;;5055254;28;20183;-79
2022/02/16 05:58:36;;;;;;;2.50;2.40;;;9.90;99.90;;;;;;5054879;28;20417;-68
2022/02/16 06:01:03;;;;;;;3.47;3.27;;;10.00;99.90;;;;;;5053939;28;20205;-68
2022/02/16 06:03:29;;;;;;;2.30;2.20;;;9.90;99.90;;;;;;5053093;28;20178;-68
2022/02/16 06:05:54;;;;;;;2.30;2.20;;;9.90;99.90;;;;;;5052702;28;20415;-68
2022/02/16 06:08:20;;;;;;;2.80;2.70;;;9.90;99.90;;;;;;5054076;28;20184;-68
2022/02/16 06:10:46;;;;;;;2.10;2.00;;;9.80;99.90;;;;;;5054382;28;20614;-68
2022/02/16 06:13:13;;;;;;;3.17;2.97;;;9.90;99.90;;;;;;5035908;28;20169;-89
2022/02/16 06:15:40;;;;;;;2.63;2.53;;;9.90;99.90;;;;;;5052883;28;20257;-69
2022/02/16 06:18:06;;;;;;;4.70;4.27;;;9.90;99.90;;;;;;5054000;28;20818;-68
2022/02/16 06:20:31;;;;;;;2.80;2.70;;;9.90;99.90;;;;;;5053362;28;20469;-69
2022/02/16 06:22:57;;;;;;;3.67;3.47;;;9.90;99.90;;;;;;5054425;28;20428;-68
2022/02/16 06:25:24;;;;;;;2.70;2.60;;;9.90;99.90;;;;;;5049291;28;20210;-68
2022/02/16 06:27:50;;;;;;;2.70;2.60;;;10.00;99.90;;;;;;5054236;28;20259;-76
2022/02/16 06:32:55;;;;;;;1.60;1.60;;;9.90;99.90;;;;;;5053725;28;20412;-69
2022/02/16 06:35:21;;;;;;;1.87;1.80;;;10.00;99.90;;;;;;5052745;28;20917;-71
2022/02/16 06:37:46;;;;;;;1.60;1.60;;;10.00;99.90;;;;;;5052366;28;20434;-70
2022/02/16 06:40:13;;;;;;;1.33;1.33;;;10.00;99.90;;;;;;5032825;28;20243;-82
2022/02/16 06:42:40;;;;;;;1.50;1.40;;;10.00;99.90;;;;;;5045998;28;20294;-70
2022/02/16 06:45:10;;;;;;;1.77;1.67;;;10.00;99.90;;;;;;5053989;28;20914;-68
2022/02/16 06:47:36;;;;;;;1.80;1.80;;;10.00;99.90;;;;;;5052661;28;20498;-67
2022/02/16 06:50:04;;;;;;;2.40;2.27;;;10.00;99.90;;;;;;5053973;28;20912;-67
2022/02/16 06:52:30;;;;;;;2.37;2.27;;;10.10;99.90;;;;;;5053146;28;20909;-68
2022/02/16 06:54:56;;;;;;;2.20;2.20;;;10.10;99.90;;;;;;5051584;28;20943;-67
2022/02/16 06:57:22;;;;;;;2.43;2.23;;;10.10;99.90;;;;;;5052984;28;20425;-68
2022/02/16 06:59:47;;;;;;;2.90;2.80;;;10.00;99.90;;;;;;5052550;28;20682;-67
2022/02/16 07:02:13;;;;;;;2.37;2.27;;;9.90;99.90;;;;;;5053341;28;20464;-68
2022/02/16 07:04:39;;;;;;;2.23;2.13;;;9.90;99.90;;;;;;5053576;28;20209;-67
2022/02/16 07:07:05;;;;;;;2.47;2.37;;;9.90;99.90;;;;;;5052939;28;20175;-68
2022/02/16 07:09:31;;;;;;;2.33;2.33;;;10.00;99.90;;;;;;5052744;28;20213;-68
2022/02/16 07:11:56;;;;;;;2.50;2.40;;;9.90;99.90;;;;;;5053584;28;20879;-68
2022/02/16 07:14:23;;;;;;;1.90;1.90;;;10.00;99.90;;;;;;5051372;28;20423;-68
2022/02/16 07:16:49;;;;;;;2.40;2.30;;;10.00;99.90;;;;;;5053181;28;20181;-67
2022/02/16 07:19:16;;;;;;;2.03;2.03;;;10.00;99.90;;;;;;5051061;28;20411;-74
2022/02/16 07:21:42;;;;;;;2.03;1.93;;;10.10;99.90;;;;;;5053160;28;20449;-67
2022/02/16 07:24:08;;;;;;;2.60;2.50;;;10.10;99.90;;;;;;5053456;28;20422;-68
2022/02/16 07:26:37;;;;;;;3.43;3.27;;;10.20;99.90;;;;;;5051896;28;20989;-68
2022/02/16 07:29:03;;;;;;;2.40;2.30;;;10.20;99.90;;;;;;5052569;28;20889;-68
2022/02/16 07:31:29;;;;;;;1.80;1.80;;;10.10;99.90;;;;;;5050765;28;20442;-68
2022/02/16 07:33:55;;;;;;;1.90;1.90;;;10.20;99.90;;;;;;5053343;28;20876;-69
2022/02/16 07:36:21;;;;;;;1.80;1.70;;;10.20;99.90;;;;;;5052553;28;20181;-72
2022/02/16 07:38:47;;;;;;;1.63;1.63;;;10.30;99.90;;;;;;5052168;28;20171;-72
2022/02/16 07:41:12;;;;;;;1.70;1.70;;;10.30;99.90;;;;;;5051974;28;20839;-71
2022/02/16 07:43:38;;;;;;;1.60;1.60;;;10.30;99.90;;;;;;5050783;28;20528;-72
2022/02/16 07:46:04;;;;;;;1.30;1.30;;;10.20;99.90;;;;;;5052476;28;20176;-71
2022/02/16 07:48:29;;;;;;;1.50;1.50;;;10.30;99.90;;;;;;5051372;28;20654;-71
2022/02/16 07:50:55;;;;;;;1.93;1.93;;;10.30;99.90;;;;;;5052572;28;20659;-71
2022/02/16 07:53:21;;;;;;;1.90;1.80;;;10.30;99.90;;;;;;5051701;28;20188;-72
2022/02/16 07:55:47;;;;;;;2.13;1.90;;;10.20;99.90;;;;;;5051332;28;20593;-71
2022/02/16 07:58:13;;;;;;;2.10;2.00;;;10.20;99.90;;;;;;5051520;28;20193;-72
2022/02/16 08:00:39;;;;;;;3.00;3.00;;;10.30;99.90;;;;;;5052673;28;20922;-71
2022/02/16 08:03:06;;;;;;;2.00;1.90;;;10.30;99.90;;;;;;5052622;28;21005;-72
2022/02/16 08:05:32;;;;;;;2.07;1.97;;;10.40;99.90;;;;;;5051260;28;20454;-80
2022/02/16 08:07:58;;;;;;;1.30;1.30;;;10.40;99.90;;;;;;5052928;28;20408;-74
2022/02/16 08:10:24;;;;;;;1.33;1.33;;;10.40;99.90;;;;;;5051911;28;20748;-71
2022/02/16 08:12:58;;;;;;;2.00;2.00;;;10.50;99.90;;;;;;5052305;28;20215;-71
2022/02/16 08:15:25;;;;;;;2.20;2.20;;;10.50;99.90;;;;;;5051540;28;20639;-72
2022/02/16 08:17:51;;;;;;;2.47;2.37;;;10.40;99.90;;;;;;5057328;28;20430;-72
2022/02/16 08:20:18;;;;;;;1.50;1.50;;;10.40;99.90;;;;;;5057273;28;20467;-72
2022/02/16 08:22:44;;;;;;;1.60;1.60;;;10.40;99.90;;;;;;5054178;28;20444;-71
2022/02/16 08:25:10;;;;;;;1.50;1.50;;;10.40;99.90;;;;;;5051594;28;20918;-74
2022/02/16 08:27:36;;;;;;;1.80;1.80;;;10.40;99.90;;;;;;5051461;28;20178;-72
2022/02/16 08:30:03;;;;;;;1.70;1.60;;;10.40;99.90;;;;;;5052455;28;20809;-71
2022/02/16 08:32:29;;;;;;;1.80;1.80;;;10.40;99.90;;;;;;5051661;28;20504;-72
2022/02/16 08:34:55;;;;;;;1.83;1.80;;;10.40;99.90;;;;;;5052630;28;20494;-71
2022/02/16 08:37:20;;;;;;;1.90;1.80;;;10.40;99.90;;;;;;5051474;28;20173;-72
2022/02/16 08:39:46;;;;;;;2.60;2.53;;;10.50;99.90;;;;;;5052435;28;20193;-71
2022/02/16 08:42:12;;;;;;;2.33;2.23;;;10.50;99.90;;;;;;5052291;28;20205;-71
2022/02/16 08:44:38;;;;;;;2.73;2.63;;;10.50;99.90;;;;;;5051770;28;20183;-72
2022/02/16 08:47:04;;;;;;;3.67;3.47;;;10.60;99.90;;;;;;5052462;28;20415;-74
2022/02/16 08:49:30;;;;;;;2.60;2.50;;;10.60;99.90;;;;;;5051722;28;20174;-73
2022/02/16 08:51:56;;;;;;;2.73;2.63;;;10.70;99.90;;;;;;5052319;28;20502;-70
2022/02/16 08:54:22;;;;;;;2.47;2.47;;;10.60;99.90;;;;;;5053740;28;20418;-71
2022/02/16 08:56:49;;;;;;;4.00;3.73;;;10.60;99.90;;;;;;5056429;28;20885;-81
2022/02/16 08:59:15;;;;;;;5.97;5.30;;;10.60;99.90;;;;;;5056440;28;20174;-81
2022/02/16 09:01:41;;;;;;;2.40;2.30;;;10.80;99.90;;;;;;5055682;28;20455;-81
2022/02/16 09:04:08;;;;;;;2.00;2.00;;;11.00;99.90;;;;;;5054980;28;20413;-81
2022/02/16 09:06:34;;;;;;;2.90;2.80;;;11.40;99.90;;;;;;5055583;28;20427;-79
2022/02/16 09:09:00;;;;;;;2.17;2.17;;;11.60;99.90;;;;;;5056081;28;20452;-80
2022/02/16 09:11:26;;;;;;;1.87;1.80;;;11.70;99.90;;;;;;5055528;28;20792;-80
2022/02/16 09:13:53;;;;;;;1.80;1.80;;;11.80;99.90;;;;;;5053944;28;20416;-80
2022/02/16 09:16:19;;;;;;;2.00;2.00;;;12.00;99.90;;;;;;5055513;28;20420;-83
2022/02/16 09:18:45;;;;;;;2.03;1.93;;;12.00;99.90;;;;;;5055459;28;20873;-82
2022/02/16 09:21:11;;;;;;;1.60;1.50;;;12.20;99.90;;;;;;5053923;28;20850;-69
2022/02/16 09:23:40;;;;;;;1.70;1.70;;;12.20;99.90;;;;;;5054244;28;20462;-69
2022/02/16 09:26:06;;;;;;;2.80;2.70;;;12.10;99.90;;;;;;5055552;28;20418;-69
2022/02/16 09:28:33;;;;;;;4.90;4.80;;;12.00;99.90;;;;;;5054846;28;20908;-69
2022/02/16 09:31:00;;;;;;;3.03;2.90;;;11.80;99.90;;;;;;5053593;28;21091;-71
2022/02/16 09:33:27;;;;;;;2.23;2.23;;;11.70;99.90;;;;;;5053691;28;20411;-70
2022/02/16 09:35:54;;;;;;;2.23;2.17;;;11.70;99.90;;;;;;5051463;28;20542;-72
2022/02/16 09:38:20;;;;;;;2.70;2.70;;;11.70;99.90;;;;;;5054750;28;20935;-69
2022/02/16 09:40:48;;;;;;;2.30;2.30;;;11.60;99.90;;;;;;5054080;28;20420;-69
2022/02/16 09:43:17;;;;;;;2.40;2.40;;;11.50;99.90;;;;;;5055190;28;20415;-70
2022/02/16 09:45:44;;;;;;;3.63;3.53;;;11.40;99.90;;;;;;5054741;28;20451;-69
2022/02/16 09:48:10;;;;;;;2.40;2.33;;;11.40;99.90;;;;;;5055423;28;20436;-69
2022/02/16 09:50:35;;;;;;;3.10;3.00;;;11.30;99.90;;;;;;5053426;28;20500;-70
2022/02/16 09:53:02;;;;;;;2.70;2.60;;;11.30;99.90;;;;;;5054975;28;20906;-70
2022/02/16 09:55:28;;;;;;;2.80;2.70;;;11.40;99.90;;;;;;5053545;28;20517;-70
2022/02/16 09:57:54;;;;;;;3.10;3.00;;;11.40;99.90;;;;;;5055270;28;20438;-69
2022/02/16 10:00:20;;;;;;;2.60;2.50;;;11.40;99.90;;;;;;5055201;28;20165;-69
2022/02/16 10:02:46;;;;;;;2.57;2.47;;;11.40;99.90;;;;;;5054318;28;20244;-70
2022/02/16 10:05:15;;;;;;;2.80;2.70;;;11.40;99.90;;;;;;5054337;28;20459;-70
2022/02/16 10:07:46;;;;;;;2.80;2.60;;;11.40;99.90;;;;;;5054172;28;20906;-69
2022/02/16 10:10:23;;;;;;;3.00;2.90;;;11.40;99.90;;;;;;5054797;28;20819;-69
2022/02/16 10:12:55;;;;;;;3.17;3.00;;;11.50;99.90;;;;;;5054965;28;20443;-69
2022/02/16 10:15:23;;;;;;;2.97;2.87;;;11.40;99.90;;;;;;5054517;28;20503;-69
2022/02/16 10:18:05;;;;;;;3.03;2.93;;;11.50;99.90;;;;;;5055116;28;20408;-69
2022/02/16 10:20:31;;;;;;;2.90;2.80;;;11.60;99.90;;;;;;5054266;28;20466;-70
2022/02/16 10:22:56;;;;;;;2.70;2.60;;;11.60;99.90;;;;;;5054725;28;20930;-69
2022/02/16 10:25:24;;;;;;;3.70;3.50;;;11.70;99.90;;;;;;5054798;28;20205;-70
2022/02/16 10:28:20;;;;;;;3.97;3.77;;;11.70;99.90;;;;;;5054657;28;20943;-70
2022/02/16 10:31:07;;;;;;;3.80;3.70;;;11.70;99.90;;;;;;5054026;28;20916;-70
2022/02/16 10:33:35;;;;;;;3.80;3.70;;;11.60;99.90;;;;;;5052857;28;20407;-70
2022/02/16 10:36:03;;;;;;;4.53;4.13;;;11.70;99.90;;;;;;5054453;28;20416;-69
2022/02/16 10:38:30;;;;;;;4.10;3.90;;;11.80;99.90;;;;;;5053948;28;20418;-70
2022/02/16 10:41:00;;;;;;;3.50;3.40;;;11.80;99.90;;;;;;5053180;28;20421;-69
2022/02/16 10:43:36;;;;;;;2.97;2.87;;;11.80;99.90;;;;;;5053723;28;20448;-70
2022/02/16 10:46:14;;;;;;;3.40;3.20;;;11.80;99.90;;;;;;5054047;28;20932;-69
2022/02/16 10:48:40;;;;;;;3.23;3.03;;;11.90;99.90;;;;;;5053799;28;20424;-69
2022/02/16 10:51:15;;;;;;;2.70;2.60;;;12.00;99.90;;;;;;5054407;28;20452;-69
2022/02/16 10:53:42;;;;;;;3.37;3.27;;;12.00;99.90;;;;;;5053346;28;20840;-69
2022/02/16 10:56:07;;;;;;;3.50;3.30;;;12.00;99.90;;;;;;5052649;28;20420;-69
2022/02/16 10:58:33;;;;;;;3.67;3.37;;;12.00;99.90;;;;;;5053495;28;20508;-69
2022/02/16 11:01:01;;;;;;;4.37;4.13;;;12.00;99.90;;;;;;5054045;28;20178;-69
2022/02/16 11:03:32;;;;;;;4.60;4.40;;;12.10;99.90;;;;;;5053340;28;20178;-70
2022/02/16 11:06:01;;;;;;;4.67;4.37;;;12.10;99.90;;;;;;5054162;28;20420;-69
2022/02/16 11:08:30;;;;;;;6.13;5.73;;;12.20;99.90;;;;;;5053559;28;20412;-71
2022/02/16 11:10:56;;;;;;;4.33;4.13;;;12.20;99.90;;;;;;5053829;28;20413;-69
2022/02/16 11:13:26;;;;;;;3.60;3.50;;;12.30;99.90;;;;;;5053833;28;20492;-69
2022/02/16 11:15:53;;;;;;;3.30;3.20;;;12.30;99.90;;;;;;5053718;28;20408;-70
2022/02/16 11:18:24;;;;;;;3.50;3.30;;;12.30;99.90;;;;;;5053811;28;20424;-70
2022/02/16 11:21:21;;;;;;;3.00;2.80;;;12.30;99.90;;;;;;5052813;28;20472;-71
2022/02/16 11:23:49;;;;;;;3.33;3.23;;;12.30;99.90;;;;;;5047835;28;20944;-70
2022/02/16 11:26:35;;;;;;;2.90;2.80;;;12.30;99.90;;;;;;5053958;28;20424;-70
2022/02/16 11:29:21;;;;;;;3.40;3.30;;;12.40;99.90;;;;;;5053751;28;20413;-69
2022/02/16 11:31:47;;;;;;;3.07;2.97;;;12.40;99.90;;;;;;5048447;28;20715;-69
2022/02/16 11:34:23;;;;;;;3.00;2.90;;;12.40;99.90;;;;;;5052161;28;20416;-69
2022/02/16 11:36:52;;;;;;;2.80;2.60;;;12.50;99.90;;;;;;5052819;28;20641;-69
2022/02/16 11:39:49;;;;;;;4.17;4.07;;;12.50;99.90;;;;;;5051937;28;20825;-69
2022/02/16 11:42:21;;;;;;;3.20;3.10;;;12.50;99.90;;;;;;5052898;28;20506;-69
2022/02/16 11:44:52;;;;;;;2.70;2.50;;;12.50;99.90;;;;;;5052353;28;20397;-69
2022/02/16 11:47:33;;;;;;;4.30;4.10;;;12.60;99.90;;;;;;5052956;28;20425;-69
2022/02/16 11:50:19;;;;;;;4.03;3.83;;;12.70;99.90;;;;;;5052686;28;20470;-69
2022/02/16 11:52:53;;;;;;;2.70;2.60;;;12.70;99.90;;;;;;5052064;28;20425;-69
2022/02/16 11:55:26;;;;;;;2.73;2.63;;;12.80;99.90;;;;;;5053003;28;20412;-69
2022/02/16 11:57:53;;;;;;;4.40;4.20;;;12.80;99.90;;;;;;5052148;28;20966;-69
2022/02/16 12:00:18;;;;;;;3.77;3.57;;;12.80;99.90;;;;;;5052968;28;20419;-69
2022/02/16 12:03:12;;;;;;;3.97;3.77;;;12.70;99.90;;;;;;5052243;28;20449;-69
2022/02/16 12:05:55;;;;;;;4.17;4.07;;;12.70;99.90;;;;;;5051297;28;20531;-69
2022/02/16 12:08:21;;;;;;;2.90;2.80;;;12.70;99.90;;;;;;5052804;28;20413;-69
2022/02/16 12:10:48;;;;;;;3.17;3.07;;;12.70;99.90;;;;;;5052070;28;20408;-69
2022/02/16 12:13:15;;;;;;;3.33;3.17;;;12.70;99.90;;;;;;5052742;28;20175;-69
2022/02/16 12:15:41;;;;;;;3.60;3.50;;;12.70;99.90;;;;;;5050862;28;20409;-70
2022/02/16 12:18:14;;;;;;;3.80;3.70;;;12.70;99.90;;;;;;5053033;28;20448;-69
2022/02/16 12:20:40;;;;;;;4.10;3.90;;;12.80;99.90;;;;;;5051746;28;20467;-69
2022/02/16 12:23:06;;;;;;;3.60;3.40;;;12.80;99.90;;;;;;5052463;28;20512;-69
2022/02/16 12:25:33;;;;;;;3.63;3.53;;;12.90;99.90;;;;;;5051968;28;20458;-70
2022/02/16 12:28:02;;;;;;;3.47;3.37;;;12.80;99.90;;;;;;5050889;28;20271;-69
2022/02/16 12:30:54;;;;;;;3.50;3.40;;;13.00;99.90;;;;;;5051215;28;20418;-69
2022/02/16 12:33:25;;;;;;;3.97;3.77;;;12.90;99.90;;;;;;5051295;28;20426;-69
2022/02/16 12:35:51;;;;;;;4.33;4.13;;;12.80;99.90;;;;;;5051740;28;20817;-69
2022/02/16 12:38:27;;;;;;;4.10;3.90;;;12.80;99.90;;;;;;5052424;28;20412;-69
2022/02/16 12:40:53;;;;;;;4.30;4.00;;;12.90;99.90;;;;;;5051781;28;20265;-69
2022/02/16 12:43:20;;;;;;;4.30;4.00;;;12.80;99.90;;;;;;5052014;28;20893;-69
2022/02/16 12:45:48;;;;;;;4.40;4.10;;;12.80;99.90;;;;;;5051749;28;20411;-69
2022/02/16 12:48:16;;;;;;;4.30;4.00;;;12.80;99.90;;;;;;5052329;28;20416;-69
2022/02/16 12:50:41;;;;;;;4.00;3.70;;;12.90;99.90;;;;;;5051391;28;20414;-69
2022/02/16 12:53:09;;;;;;;5.20;4.93;;;12.90;99.90;;;;;;5052362;28;20812;-69
2022/02/16 12:55:46;;;;;;;5.10;4.70;;;12.90;99.90;;;;;;5051819;28;20537;-69
2022/02/16 12:58:15;;;;;;;5.60;5.30;;;12.90;99.90;;;;;;5052268;28;20481;-69